Time;durP1;ratioP1;P1;durP2;ratioP2;P2;SDS_P1;SDS_P2;PMS_P1;PMS_P2;Temp;Humidity;BMP_temperature;BMP_pressure;BME280_temperature;BME280_humidity;BME280_pressure;Samples;Min_cycle;Max_cycle;Signal;HPM_P1;HPM_P2
2021/05/18 00:00:09;;;;;;;11.53;10.37;;;;;;;;;;5033330;28;20469;-61
2021/05/18 00:02:36;;;;;;;11.83;10.70;;;;;;;;;;5033565;28;20449;-61
2021/05/18 00:05:04;;;;;;;12.37;11.07;;;;;;;;;;5033605;28;20445;-61
2021/05/18 00:07:31;;;;;;;13.90;12.37;;;;;;;;;;5033519;28;20447;-61
2021/05/18 00:12:42;;;;;;;15.13;12.85;;;;;;;;;;5033454;28;20493;-61
2021/05/18 00:15:11;;;;;;;14.33;12.80;;;;;;;;;;5033006;28;20286;-60
2021/05/18 00:17:39;;;;;;;14.47;12.33;;;;;;;;;;5033316;28;20449;-60
2021/05/18 00:20:07;;;;;;;14.70;13.20;;;;;;;;;;5033228;28;20469;-61
2021/05/18 00:22:34;;;;;;;15.07;13.48;;;;;;;;;;5033835;28;20502;-61
2021/05/18 00:25:01;;;;;;;13.83;12.43;;;;;;;;;;5037462;28;20231;-60
2021/05/18 00:27:29;;;;;;;15.30;13.70;;;;;;;;;;5037426;28;20452;-61
2021/05/18 00:29:56;;;;;;;14.33;12.90;;;;;;;;;;5036727;28;20488;-61
2021/05/18 00:32:23;;;;;;;16.00;12.67;;;;;;;;;;5037407;28;20484;-61
2021/05/18 00:34:54;;;;;;;13.90;12.50;;;;;;;;;;5037694;28;20441;-61
2021/05/18 00:37:21;;;;;;;14.60;12.73;;;;;;;;;;5037679;28;20437;-61
2021/05/18 00:39:48;;;;;;;14.90;12.77;;;;;;;;;;5038442;28;20464;-60
2021/05/18 00:42:15;;;;;;;14.90;13.40;;;;;;;;;;5037455;28;20959;-61
2021/05/18 00:44:42;;;;;;;15.90;13.30;;;;;;;;;;5036759;28;20823;-60
2021/05/18 00:47:09;;;;;;;16.63;13.27;;;;;;;;;;5036840;28;20460;-61
2021/05/18 00:49:35;;;;;;;17.70;13.60;;;;;;;;;;5036871;28;20489;-61
2021/05/18 00:52:05;;;;;;;15.27;13.40;;;;;;;;;;5039552;28;20449;-61
2021/05/18 00:54:37;;;;;;;15.17;13.57;;;;;;;;;;5042609;28;20475;-60
2021/05/18 00:59:50;;;;;;;14.07;12.57;;;;;;;;;;5042895;28;20472;-60
2021/05/18 01:02:17;;;;;;;14.63;11.30;;;;;;;;;;5042905;28;20476;-60
2021/05/18 01:04:44;;;;;;;13.93;11.67;;;;;;;;;;5043581;28;20499;-60
2021/05/18 01:07:12;;;;;;;14.40;12.90;;;;;;;;;;5043753;28;20452;-60
2021/05/18 01:09:39;;;;;;;15.88;11.25;;;;;;;;;;5040081;28;20492;-61
2021/05/18 01:12:06;;;;;;;13.60;12.20;;;;;;;;;;5039824;28;20213;-60
2021/05/18 01:14:33;;;;;;;14.60;10.82;;;;;;;;;;5039713;28;20198;-60
2021/05/18 01:17:00;;;;;;;12.70;10.70;;;;;;;;;;5040102;28;20203;-60
2021/05/18 01:19:27;;;;;;;15.45;11.13;;;;;;;;;;5040555;28;20608;-60
2021/05/18 01:21:55;;;;;;;14.18;11.20;;;;;;;;;;5038947;28;20721;-60
2021/05/18 01:24:22;;;;;;;15.60;11.25;;;;;;;;;;5038832;28;20213;-60
2021/05/18 01:26:49;;;;;;;15.40;9.90;;;;;;;;;;5038714;28;20206;-60
2021/05/18 01:29:19;;;;;;;14.15;11.40;;;;;;;;;;5037825;28;20998;-61
2021/05/18 01:31:46;;;;;;;13.80;9.90;;;;;;;;;;5036379;28;20206;-61
2021/05/18 01:34:13;;;;;;;16.15;10.95;;;;;;;;;;5036842;28;20289;-61
2021/05/18 01:36:40;;;;;;;18.23;11.68;;;;;;;;;;5037685;28;20207;-60
2021/05/18 01:39:24;;;;;;;17.50;10.88;;;;;;;;;;5040988;28;20658;-60
2021/05/18 01:44:36;;;;;;;15.52;11.43;;;;;;;;;;5041038;28;20228;-60
2021/05/18 01:47:03;;;;;;;15.50;11.80;;;;;;;;;;5039359;28;20206;-60
2021/05/18 01:49:30;;;;;;;16.02;12.57;;;;;;;;;;5039181;28;20242;-61
2021/05/18 01:51:58;;;;;;;18.83;13.15;;;;;;;;;;5037345;28;20206;-60
2021/05/18 01:54:27;;;;;;;17.33;12.77;;;;;;;;;;5036708;28;20209;-60
2021/05/18 01:57:15;;;;;;;20.27;13.50;;;;;;;;;;5036381;28;20275;-61
2021/05/18 01:59:41;;;;;;;16.92;11.93;;;;;;;;;;5036297;28;20586;-61
2021/05/18 02:02:08;;;;;;;19.00;13.35;;;;;;;;;;5036225;28;20260;-61
2021/05/18 02:04:36;;;;;;;20.40;14.80;;;;;;;;;;5035884;28;20214;-61
2021/05/18 02:07:05;;;;;;;21.98;14.88;;;;;;;;;;5036250;28;20256;-61
2021/05/18 02:09:32;;;;;;;24.67;15.65;;;;;;;;;;5035603;28;20222;-61
2021/05/18 02:11:59;;;;;;;21.08;15.93;;;;;;;;;;5036073;28;20203;-60
2021/05/18 02:14:28;;;;;;;21.33;14.40;;;;;;;;;;5035681;28;20202;-61
2021/05/18 02:17:00;;;;;;;21.40;14.55;;;;;;;;;;5035669;28;20206;-61
2021/05/18 02:19:39;;;;;;;20.98;15.30;;;;;;;;;;5035531;28;20182;-60
2021/05/18 02:22:20;;;;;;;20.15;14.50;;;;;;;;;;5035648;28;20186;-60
2021/05/18 02:25:00;;;;;;;19.95;14.55;;;;;;;;;;5035366;28;20194;-60
2021/05/18 02:27:28;;;;;;;21.73;15.70;;;;;;;;;;5035701;28;20191;-61
2021/05/18 02:29:55;;;;;;;22.63;15.52;;;;;;;;;;5035116;28;20230;-61
2021/05/18 02:32:22;;;;;;;19.35;15.02;;;;;;;;;;5035069;28;20193;-60
2021/05/18 02:34:48;;;;;;;23.27;16.83;;;;;;;;;;5034703;28;20670;-60
2021/05/18 02:37:15;;;;;;;21.67;14.88;;;;;;;;;;5034733;28;20214;-60
2021/05/18 02:39:42;;;;;;;17.65;14.02;;;;;;;;;;5034532;28;20245;-61
2021/05/18 02:42:10;;;;;;;22.55;15.90;;;;;;;;;;5034837;28;20251;-60
2021/05/18 02:44:42;;;;;;;22.67;15.85;;;;;;;;;;5034831;28;20256;-60
2021/05/18 02:49:53;;;;;;;19.85;14.85;;;;;;;;;;5034399;28;20717;-60
2021/05/18 02:52:20;;;;;;;22.50;15.80;;;;;;;;;;5034817;28;20199;-60
2021/05/18 02:54:50;;;;;;;19.48;14.90;;;;;;;;;;5034874;28;20203;-61
2021/05/18 02:57:30;;;;;;;22.83;15.93;;;;;;;;;;5034984;28;20290;-61
2021/05/18 02:59:57;;;;;;;22.75;16.55;;;;;;;;;;5034120;28;20218;-61
2021/05/18 03:02:23;;;;;;;23.88;16.63;;;;;;;;;;5036517;28;20205;-61
2021/05/18 03:04:50;;;;;;;21.48;15.98;;;;;;;;;;5034572;28;20206;-60
2021/05/18 03:07:17;;;;;;;23.02;16.88;;;;;;;;;;5034071;28;20206;-60
2021/05/18 03:09:44;;;;;;;26.02;17.00;;;;;;;;;;5034320;28;20253;-60
2021/05/18 03:12:11;;;;;;;28.77;16.02;;;;;;;;;;5034110;28;20666;-61
2021/05/18 03:14:38;;;;;;;24.70;17.00;;;;;;;;;;5033963;28;20684;-61
2021/05/18 03:17:05;;;;;;;21.73;17.17;;;;;;;;;;5034210;28;20256;-61
2021/05/18 03:19:32;;;;;;;27.08;17.50;;;;;;;;;;5033737;28;20218;-61
2021/05/18 03:21:59;;;;;;;25.65;16.75;;;;;;;;;;5033995;28;20202;-60
2021/05/18 03:24:26;;;;;;;25.95;16.70;;;;;;;;;;5033762;28;20693;-60
2021/05/18 03:26:52;;;;;;;22.67;16.88;;;;;;;;;;5034009;28;20202;-61
2021/05/18 03:29:22;;;;;;;26.27;16.30;;;;;;;;;;5033709;28;20221;-60
2021/05/18 03:34:36;;;;;;;24.17;15.75;;;;;;;;;;5033674;28;20245;-60
2021/05/18 03:37:07;;;;;;;25.70;17.10;;;;;;;;;;5033889;28;20206;-60
2021/05/18 03:39:35;;;;;;;23.02;16.42;;;;;;;;;;5033819;28;20582;-61
2021/05/18 03:42:05;;;;;;;29.73;17.77;;;;;;;;;;5033633;28;20255;-61
2021/05/18 03:44:52;;;;;;;25.17;16.85;;;;;;;;;;5034037;28;20277;-60
2021/05/18 03:52:56;;;;;;;25.65;17.05;;;;;;;;;;5033494;28;20178;-61
2021/05/18 04:03:45;;;;;;;25.83;17.13;;;;;;;;;;5034702;28;20519;-60
2021/05/18 04:11:19;;;;;;;21.30;16.48;;;;;;;;;;5112464;28;20437;-61
2021/05/18 04:16:54;;;;;;;23.88;16.80;;;;;;;;;;5111480;28;20409;-60
2021/05/18 04:19:25;;;;;;;28.38;17.20;;;;;;;;;;5111472;28;20184;-61
2021/05/18 04:22:03;;;;;;;23.90;16.40;;;;;;;;;;5111366;28;20222;-61
2021/05/18 04:52:01;;;;;;;26.83;16.20;;;;;;;;;;5111843;28;20439;-61
2021/05/18 04:59:56;;;;;;;19.63;12.40;;;;;;;;;;5110383;28;20443;-60
2021/05/18 05:02:52;;;;;;;19.77;12.10;;;;;;;;;;5110045;28;20978;-59
2021/05/18 05:08:06;;;;;;;17.83;11.40;;;;;;;;;;5109950;28;20459;-60
2021/05/18 05:16:03;;;;;;;16.80;11.00;;;;;;;;;;5110182;28;20535;-59
2021/05/18 05:18:30;;;;;;;14.80;10.90;;;;;;;;;;5101893;28;20452;-59
2021/05/18 05:20:57;;;;;;;14.90;10.60;;;;;;;;;;5096423;28;20493;-60
2021/05/18 05:23:24;;;;;;;15.70;10.60;;;;;;;;;;5096394;28;20949;-60
2021/05/18 05:25:50;;;;;;;14.00;9.33;;;;;;;;;;5096162;28;20500;-60
2021/05/18 05:28:17;;;;;;;15.70;10.17;;;;;;;;;;5095956;28;20498;-60
2021/05/18 05:30:45;;;;;;;22.23;11.10;;;;;;;;;;5096415;28;20461;-60
2021/05/18 05:33:12;;;;;;;13.20;9.77;;;;;;;;;;5096048;28;20454;-59
2021/05/18 05:35:38;;;;;;;14.50;9.27;;;;;;;;;;5095496;28;20986;-59
2021/05/18 05:38:06;;;;;;;14.40;10.23;;;;;;;;;;5096115;28;20570;-60
2021/05/18 05:40:33;;;;;;;19.97;10.13;;;;;;;;;;5095988;28;20468;-59
2021/05/18 05:43:00;;;;;;;15.80;9.97;;;;;;;;;;5095565;28;20810;-60
2021/05/18 05:45:27;;;;;;;15.70;9.60;;;;;;;;;;5095993;28;20456;-60
2021/05/18 05:47:54;;;;;;;18.77;10.00;;;;;;;;;;5095881;28;20488;-59
2021/05/18 05:50:21;;;;;;;16.77;10.33;;;;;;;;;;5095451;28;20464;-60
2021/05/18 05:52:48;;;;;;;17.87;10.50;;;;;;;;;;5095770;28;20444;-60
2021/05/18 05:55:14;;;;;;;14.07;9.37;;;;;;;;;;5096108;28;20501;-60
2021/05/18 05:57:41;;;;;;;12.80;9.83;;;;;;;;;;5096067;28;20802;-60
2021/05/18 06:00:10;;;;;;;13.50;9.73;;;;;;;;;;5095302;28;20861;-60
2021/05/18 06:02:37;;;;;;;12.23;8.50;;;;;;;;;;5095251;28;20538;-60
2021/05/18 06:05:05;;;;;;;16.33;10.30;;;;;;;;;;5096091;28;20442;-60
2021/05/18 06:07:31;;;;;;;16.07;10.20;;;;;;;;;;5095660;28;20482;-60
2021/05/18 06:10:01;;;;;;;12.23;10.00;;;;;;;;;;5095886;28;20474;-61
2021/05/18 06:12:43;;;;;;;15.77;9.50;;;;;;;;;;5095620;28;20499;-61
2021/05/18 06:15:41;;;;;;;12.33;9.47;;;;;;;;;;5095529;28;20426;-61
2021/05/18 06:34:55;;;;;;;11.27;8.23;;;;;;;;;;5096441;28;20399;-62
2021/05/18 06:37:42;;;;;;;15.10;9.17;;;;;;;;;;5095537;28;20431;-61
2021/05/18 06:43:08;;;;;;;10.90;8.53;;;;;;;;;;5095313;28;20458;-61
2021/05/18 06:48:25;;;;;;;12.00;8.90;;;;;;;;;;5094524;28;20871;-61
2021/05/18 06:50:52;;;;;;;9.90;8.60;;;;;;;;;;5094487;28;20461;-60
2021/05/18 06:53:19;;;;;;;9.90;8.60;;;;;;;;;;5094143;28;20960;-59
2021/05/18 06:55:48;;;;;;;14.20;8.97;;;;;;;;;;5094962;28;20445;-60
2021/05/18 06:58:18;;;;;;;14.00;8.27;;;;;;;;;;5095314;28;20442;-59
2021/05/18 07:00:46;;;;;;;10.43;7.97;;;;;;;;;;5095977;28;20510;-60
2021/05/18 07:03:14;;;;;;;19.53;9.07;;;;;;;;;;5095779;28;20467;-61
2021/05/18 07:05:48;;;;;;;12.93;8.70;;;;;;;;;;5094543;28;20472;-60
2021/05/18 07:11:12;;;;;;;14.30;9.37;;;;;;;;;;5094502;28;20453;-60
2021/05/18 07:13:38;;;;;;;11.70;9.60;;;;;;;;;;5095468;28;20485;-60
2021/05/18 07:16:06;;;;;;;10.90;8.60;;;;;;;;;;5094960;28;20450;-61
2021/05/18 07:18:32;;;;;;;10.73;9.27;;;;;;;;;;5093971;28;20441;-62
2021/05/18 07:20:59;;;;;;;13.50;9.43;;;;;;;;;;5094636;28;20828;-59
2021/05/18 07:23:27;;;;;;;11.63;8.73;;;;;;;;;;5093575;28;20864;-60
2021/05/18 07:25:54;;;;;;;10.47;8.60;;;;;;;;;;5093938;28;20448;-60
2021/05/18 07:28:22;;;;;;;10.33;8.47;;;;;;;;;;5094094;28;20440;-61
2021/05/18 07:30:49;;;;;;;15.33;8.90;;;;;;;;;;5093531;28;20481;-61
2021/05/18 07:33:16;;;;;;;14.40;8.70;;;;;;;;;;5093437;28;20849;-59
2021/05/18 07:35:45;;;;;;;10.90;7.57;;;;;;;;;;5093760;28;20456;-59
2021/05/18 07:38:12;;;;;;;11.90;8.43;;;;;;;;;;5093577;28;20456;-59
2021/05/18 07:40:39;;;;;;;15.70;8.90;;;;;;;;;;5093282;28;20472;-59
2021/05/18 07:43:05;;;;;;;10.40;8.60;;;;;;;;;;5093825;28;20503;-61
2021/05/18 07:45:33;;;;;;;11.03;7.40;;;;;;;;;;5093580;28;20502;-60
2021/05/18 07:48:05;;;;;;;7.50;6.23;;;;;;;;;;5094117;28;20819;-59
2021/05/18 07:50:41;;;;;;;14.20;6.90;;;;;;;;;;5093539;28;20466;-61
2021/05/18 08:07:02;;;;;;;5.03;4.50;;;;;;;;;;5094645;28;20469;-60
2021/05/18 08:09:29;;;;;;;5.13;3.80;;;;;;;;;;5093037;28;20519;-59
2021/05/18 08:11:56;;;;;;;7.50;3.47;;;;;;;;;;5093439;28;20545;-59
2021/05/18 08:14:25;;;;;;;7.10;4.27;;;;;;;;;;5093519;28;20495;-60
2021/05/18 08:17:02;;;;;;;5.43;4.93;;;;;;;;;;5093187;28;20449;-59
2021/05/18 08:22:55;;;;;;;8.63;5.77;;;;;;;;;;5090110;28;20953;-59
2021/05/18 10:34:54;;;;;;;4.97;4.27;;;;;;;;;;5094768;28;20435;-61
2021/05/18 10:37:24;;;;;;;4.70;4.00;;;;;;;;;;5094557;28;20437;-61
2021/05/18 10:40:10;;;;;;;4.83;4.43;;;;;;;;;;5095927;28;20504;-61
2021/05/18 10:42:36;;;;;;;4.80;4.30;;;;;;;;;;5095113;28;20444;-60
2021/05/18 10:45:03;;;;;;;5.20;4.03;;;;;;;;;;5094632;28;20493;-60
2021/05/18 10:47:47;;;;;;;4.50;4.10;;;;;;;;;;5094438;28;20482;-59
2021/05/18 10:50:14;;;;;;;4.77;4.37;;;;;;;;;;5099165;28;20472;-60
2021/05/18 10:52:41;;;;;;;4.90;4.50;;;;;;;;;;5104662;28;20446;-60
2021/05/18 10:55:09;;;;;;;4.60;4.20;;;;;;;;;;5106380;28;20457;-58
2021/05/18 10:57:36;;;;;;;6.83;4.97;;;;;;;;;;5106289;28;20457;-61
2021/05/18 11:00:05;;;;;;;4.50;4.10;;;;;;;;;;5106051;28;20481;-60
2021/05/18 11:02:33;;;;;;;5.03;4.63;;;;;;;;;;5101947;28;20446;-60
2021/05/18 11:05:02;;;;;;;4.93;4.40;;;;;;;;;;5107035;28;20453;-60
2021/05/18 11:07:31;;;;;;;3.93;3.63;;;;;;;;;;5106007;28;20479;-61
2021/05/18 11:09:58;;;;;;;4.20;3.50;;;;;;;;;;5104664;28;20458;-61
2021/05/18 11:12:25;;;;;;;3.13;2.60;;;;;;;;;;5101805;28;20445;-60
2021/05/18 11:14:53;;;;;;;3.63;2.80;;;;;;;;;;5101250;28;20453;-60
2021/05/18 11:17:24;;;;;;;4.40;2.73;;;;;;;;;;5107305;28;20834;-61
2021/05/18 11:19:59;;;;;;;4.50;3.10;;;;;;;;;;5102406;28;20466;-61
2021/05/18 11:25:12;;;;;;;3.13;2.60;;;;;;;;;;5109229;28;20422;-60
2021/05/18 11:27:39;;;;;;;3.20;2.90;;;;;;;;;;5107643;28;20478;-61
2021/05/18 11:30:07;;;;;;;4.30;2.87;;;;;;;;;;5105948;28;20478;-59
2021/05/18 11:32:33;;;;;;;3.80;3.10;;;;;;;;;;5105599;28;20463;-60
2021/05/18 11:35:02;;;;;;;5.10;3.00;;;;;;;;;;5100359;28;20446;-60
2021/05/18 11:37:31;;;;;;;4.90;3.57;;;;;;;;;;5097793;28;20482;-61
2021/05/18 11:40:11;;;;;;;4.27;3.87;;;;;;;;;;5097435;28;20469;-60
2021/05/18 11:42:37;;;;;;;5.20;3.67;;;;;;;;;;5097886;28;20495;-60
2021/05/18 11:45:10;;;;;;;5.23;3.80;;;;;;;;;;5099295;28;20453;-61
2021/05/18 11:47:37;;;;;;;4.27;3.80;;;;;;;;;;5101881;28;20997;-61
2021/05/18 11:50:04;;;;;;;4.37;3.97;;;;;;;;;;5097716;28;20458;-62
2021/05/18 11:52:41;;;;;;;4.00;3.60;;;;;;;;;;5095063;28;20447;-61
2021/05/18 11:55:17;;;;;;;3.73;3.43;;;;;;;;;;5094695;28;20430;-61
2021/05/18 11:57:44;;;;;;;4.80;3.33;;;;;;;;;;5095609;28;20450;-60
2021/05/18 12:00:19;;;;;;;5.57;4.10;;;;;;;;;;5094852;28;20462;-61
2021/05/18 12:02:46;;;;;;;4.93;3.13;;;;;;;;;;5095304;28;20554;-62
2021/05/18 12:05:13;;;;;;;3.90;3.60;;;;;;;;;;5094860;28;20487;-60
2021/05/18 12:07:41;;;;;;;3.80;3.40;;;;;;;;;;5093663;28;20490;-62
2021/05/18 12:10:08;;;;;;;5.00;3.57;;;;;;;;;;5094253;28;20462;-62
2021/05/18 12:12:39;;;;;;;10.37;9.37;;;;;;;;;;5095934;28;20443;-61
2021/05/18 12:15:08;;;;;;;4.00;3.03;;;;;;;;;;5097494;28;20442;-61
2021/05/18 12:17:35;;;;;;;5.20;3.30;;;;;;;;;;5097238;28;20488;-61
2021/05/18 12:20:03;;;;;;;4.37;3.23;;;;;;;;;;5096059;28;20963;-62
2021/05/18 12:22:30;;;;;;;3.37;2.80;;;;;;;;;;5095487;28;20485;-62
2021/05/18 12:24:58;;;;;;;3.20;2.90;;;;;;;;;;5094512;28;20445;-61
2021/05/18 12:27:25;;;;;;;4.30;3.87;;;;;;;;;;5093703;28;21050;-61
2021/05/18 12:29:52;;;;;;;4.20;3.70;;;;;;;;;;5098394;28;20465;-62
2021/05/18 12:32:20;;;;;;;5.50;3.50;;;;;;;;;;5098408;28;20442;-60
2021/05/18 12:34:48;;;;;;;4.40;3.70;;;;;;;;;;5097611;28;20944;-62
2021/05/18 12:37:15;;;;;;;5.43;4.40;;;;;;;;;;5097228;28;20442;-62
2021/05/18 12:39:43;;;;;;;4.37;3.90;;;;;;;;;;5098236;28;21008;-61
2021/05/18 12:42:13;;;;;;;5.17;4.33;;;;;;;;;;5097532;28;20549;-58
2021/05/18 12:44:53;;;;;;;5.67;4.67;;;;;;;;;;5097384;28;20459;-62
2021/05/18 12:47:27;;;;;;;5.00;3.93;;;;;;;;;;5096963;28;20473;-61
2021/05/18 12:49:54;;;;;;;6.77;5.50;;;;;;;;;;5096825;28;20529;-62
2021/05/18 12:52:21;;;;;;;6.70;4.40;;;;;;;;;;5096552;28;20454;-61
2021/05/18 12:54:52;;;;;;;5.80;4.17;;;;;;;;;;5097148;28;20442;-60
2021/05/18 12:57:21;;;;;;;5.30;3.97;;;;;;;;;;5097379;28;20613;-61
2021/05/18 12:59:58;;;;;;;8.50;4.70;;;;;;;;;;5096679;28;20535;-61
2021/05/18 13:02:28;;;;;;;5.40;4.90;;;;;;;;;;5096816;28;20495;-60
2021/05/18 13:05:03;;;;;;;5.13;4.63;;;;;;;;;;5096818;28;20450;-60
2021/05/18 13:07:30;;;;;;;7.03;5.10;;;;;;;;;;5096920;28;20485;-61
2021/05/18 13:10:05;;;;;;;6.80;4.57;;;;;;;;;;5097018;28;20473;-59
2021/05/18 13:12:33;;;;;;;6.20;4.90;;;;;;;;;;5098043;28;20426;-61
2021/05/18 13:15:01;;;;;;;5.73;4.80;;;;;;;;;;5097844;28;20472;-61
2021/05/18 13:17:28;;;;;;;7.80;5.37;;;;;;;;;;5097785;28;20438;-61
2021/05/18 13:19:59;;;;;;;6.00;4.77;;;;;;;;;;5097157;28;20484;-60
2021/05/18 13:22:27;;;;;;;6.80;5.80;;;;;;;;;;5096533;28;20494;-61
2021/05/18 13:27:49;;;;;;;5.07;4.40;;;;;;;;;;5096591;28;20876;-60
2021/05/18 13:30:17;;;;;;;9.00;5.40;;;;;;;;;;5096185;28;20468;-61
2021/05/18 13:32:47;;;;;;;5.47;4.97;;;;;;;;;;5097016;28;20442;-62
2021/05/18 13:35:14;;;;;;;5.80;5.30;;;;;;;;;;5099749;28;20513;-61
2021/05/18 13:37:40;;;;;;;6.20;5.10;;;;;;;;;;5097916;28;20448;-61
2021/05/18 13:40:08;;;;;;;6.03;5.43;;;;;;;;;;5095937;28;20473;-60
2021/05/18 13:42:34;;;;;;;5.03;4.53;;;;;;;;;;5096538;28;20496;-61
2021/05/18 13:45:02;;;;;;;5.83;5.03;;;;;;;;;;5096188;28;20450;-61
2021/05/18 13:47:29;;;;;;;5.27;4.70;;;;;;;;;;5095957;28;20474;-61
2021/05/18 13:49:56;;;;;;;5.37;3.97;;;;;;;;;;5096350;28;20466;-58
2021/05/18 13:52:23;;;;;;;3.93;3.53;;;;;;;;;;5097407;28;20890;-61
2021/05/18 13:54:50;;;;;;;3.43;3.10;;;;;;;;;;5096631;28;21004;-61
2021/05/18 13:57:17;;;;;;;3.73;3.30;;;;;;;;;;5097195;28;20941;-59
2021/05/18 13:59:44;;;;;;;4.43;3.60;;;;;;;;;;5096065;28;20832;-60
2021/05/18 14:02:12;;;;;;;4.10;3.70;;;;;;;;;;5096643;28;20446;-61
2021/05/18 14:04:38;;;;;;;4.17;3.77;;;;;;;;;;5095997;28;20439;-58
2021/05/18 14:09:54;;;;;;;4.33;3.33;;;;;;;;;;5087033;28;20587;-58
2021/05/18 14:12:21;;;;;;;6.20;5.60;;;;;;;;;;5096359;28;21043;-59
2021/05/18 14:14:47;;;;;;;7.37;5.70;;;;;;;;;;5096468;28;20440;-60
2021/05/18 14:17:15;;;;;;;7.27;5.70;;;;;;;;;;5095951;28;20436;-61
2021/05/18 14:19:42;;;;;;;6.40;5.47;;;;;;;;;;5095276;28;20989;-61
2021/05/18 14:22:09;;;;;;;6.20;5.60;;;;;;;;;;5096402;28;20438;-60
2021/05/18 14:24:40;;;;;;;7.50;5.50;;;;;;;;;;5096518;28;20445;-61
2021/05/18 14:27:08;;;;;;;6.10;5.50;;;;;;;;;;5096392;28;20473;-59
2021/05/18 14:29:35;;;;;;;5.87;4.80;;;;;;;;;;5095822;28;21023;-61
2021/05/18 14:32:02;;;;;;;7.80;5.00;;;;;;;;;;5095788;28;20507;-61
2021/05/18 14:34:29;;;;;;;5.63;4.83;;;;;;;;;;5095769;28;20441;-59
2021/05/18 14:36:57;;;;;;;5.93;5.37;;;;;;;;;;5095317;28;20509;-59
2021/05/18 14:39:33;;;;;;;6.07;4.90;;;;;;;;;;5094709;28;20930;-61
2021/05/18 14:44:45;;;;;;;5.13;4.70;;;;;;;;;;5104072;28;20389;-59
2021/05/18 14:47:16;;;;;;;5.00;4.50;;;;;;;;;;5097597;28;20485;-59
2021/05/18 14:55:17;;;;;;;5.60;5.10;;;;;;;;;;5095908;28;20399;-59
2021/05/18 14:57:44;;;;;;;6.20;4.50;;;;;;;;;;5094714;28;20436;-60
2021/05/18 15:00:11;;;;;;;4.53;3.70;;;;;;;;;;5094927;28;20479;-59
2021/05/18 15:02:38;;;;;;;5.40;3.50;;;;;;;;;;5094872;28;20494;-59
2021/05/18 15:05:06;;;;;;;4.40;4.00;;;;;;;;;;5095257;28;20442;-59
2021/05/18 15:07:33;;;;;;;3.60;3.30;;;;;;;;;;5094338;28;20485;-60
2021/05/18 15:10:00;;;;;;;4.20;3.60;;;;;;;;;;5094597;28;20996;-60
2021/05/18 15:12:27;;;;;;;2.90;2.70;;;;;;;;;;5094353;28;20489;-60
2021/05/18 15:14:54;;;;;;;4.23;2.50;;;;;;;;;;5094323;28;20451;-60
2021/05/18 15:17:20;;;;;;;3.97;3.40;;;;;;;;;;5094696;28;20438;-60
2021/05/18 15:19:51;;;;;;;3.07;2.77;;;;;;;;;;5094713;28;20471;-59
2021/05/18 15:22:19;;;;;;;5.13;2.77;;;;;;;;;;5096014;28;20431;-59
2021/05/18 15:24:45;;;;;;;2.93;2.50;;;;;;;;;;5094496;28;20446;-59
2021/05/18 15:27:12;;;;;;;2.87;2.23;;;;;;;;;;5094823;28;20482;-60
2021/05/18 15:29:39;;;;;;;2.63;2.43;;;;;;;;;;5094672;28;20458;-59
2021/05/18 15:32:06;;;;;;;3.40;1.90;;;;;;;;;;5094571;28;20805;-60
2021/05/18 15:34:33;;;;;;;2.87;1.90;;;;;;;;;;5095093;28;20479;-59
2021/05/18 15:37:00;;;;;;;2.80;2.20;;;;;;;;;;5094837;28;20443;-59
2021/05/18 15:39:28;;;;;;;2.50;2.30;;;;;;;;;;5094865;28;20803;-59
2021/05/18 15:41:55;;;;;;;3.30;2.33;;;;;;;;;;5095426;28;20448;-59
2021/05/18 15:44:22;;;;;;;2.70;2.50;;;;;;;;;;5094947;28;20446;-61
2021/05/18 15:46:48;;;;;;;4.97;3.23;;;;;;;;;;5094046;28;20446;-60
2021/05/18 15:49:15;;;;;;;4.87;4.37;;;;;;;;;;5094953;28;20455;-60
2021/05/18 15:51:42;;;;;;;6.40;4.50;;;;;;;;;;5094209;28;20580;-59
2021/05/18 15:54:09;;;;;;;5.30;4.80;;;;;;;;;;5094038;28;20442;-60
2021/05/18 15:56:37;;;;;;;7.53;4.73;;;;;;;;;;5093983;28;20454;-59
2021/05/18 15:59:04;;;;;;;7.00;4.50;;;;;;;;;;5097456;28;20446;-59
2021/05/18 16:01:31;;;;;;;7.80;5.73;;;;;;;;;;5104350;28;20462;-58
2021/05/18 16:03:58;;;;;;;8.13;6.03;;;;;;;;;;5105922;28;20455;-59
2021/05/18 16:06:25;;;;;;;6.40;5.80;;;;;;;;;;5105742;28;20454;-59
2021/05/18 16:09:01;;;;;;;7.60;5.30;;;;;;;;;;5104598;28;20474;-60
2021/05/18 16:11:28;;;;;;;6.93;5.43;;;;;;;;;;5103206;28;20474;-60
2021/05/18 16:13:56;;;;;;;9.33;6.80;;;;;;;;;;5099295;28;20442;-61
2021/05/18 16:16:23;;;;;;;7.20;6.30;;;;;;;;;;5099825;28;20453;-59
2021/05/18 16:18:49;;;;;;;6.53;5.77;;;;;;;;;;5095869;28;20947;-60
2021/05/18 16:21:17;;;;;;;7.67;5.90;;;;;;;;;;5089785;22;20501;-57
2021/05/18 16:23:45;;;;;;;8.33;6.63;;;;;;;;;;5032916;28;20445;-57
2021/05/18 16:26:12;;;;;;;7.00;6.20;;;;;;;;;;5032829;28;20543;-58
2021/05/18 16:28:39;;;;;;;7.33;6.10;;;;;;;;;;5032808;28;20535;-57
2021/05/18 16:31:08;;;;;;;6.47;5.87;;;;;;;;;;5032773;28;20492;-56
2021/05/18 16:33:34;;;;;;;8.83;6.07;;;;;;;;;;5032802;28;20454;-57
2021/05/18 16:36:01;;;;;;;8.10;6.60;;;;;;;;;;5031994;28;20456;-59
2021/05/18 16:38:28;;;;;;;7.70;6.90;;;;;;;;;;5032625;28;20445;-58
2021/05/18 16:40:55;;;;;;;7.37;6.67;;;;;;;;;;5032614;28;20466;-58
2021/05/18 16:43:22;;;;;;;7.40;6.60;;;;;;;;;;5032356;28;20441;-58
2021/05/18 16:45:49;;;;;;;6.70;6.07;;;;;;;;;;5032442;28;20887;-58
2021/05/18 16:48:17;;;;;;;7.80;6.77;;;;;;;;;;5032559;28;20481;-58
2021/05/18 16:50:44;;;;;;;7.63;6.93;;;;;;;;;;5032654;28;20531;-58
2021/05/18 16:53:11;;;;;;;9.20;6.67;;;;;;;;;;5033888;28;20453;-58
2021/05/18 16:55:38;;;;;;;10.17;5.80;;;;;;;;;;5032231;28;20449;-58
2021/05/18 16:58:04;;;;;;;9.10;6.37;;;;;;;;;;5032506;28;20492;-57
2021/05/18 17:00:32;;;;;;;7.30;5.23;;;;;;;;;;5032151;28;20527;-57
2021/05/18 17:02:58;;;;;;;7.87;5.53;;;;;;;;;;5033210;28;20938;-58
2021/05/18 17:05:27;;;;;;;6.80;6.10;;;;;;;;;;5032579;28;20459;-58
2021/05/18 17:07:53;;;;;;;6.90;6.30;;;;;;;;;;5032229;28;21025;-58
2021/05/18 17:10:22;;;;;;;7.30;5.47;;;;;;;;;;5032028;28;20814;-58
2021/05/18 17:12:49;;;;;;;7.73;6.27;;;;;;;;;;5032620;28;20447;-59
2021/05/18 17:15:16;;;;;;;6.30;5.17;;;;;;;;;;5034644;28;20917;-59
2021/05/18 17:17:43;;;;;;;6.90;5.27;;;;;;;;;;5035675;28;20452;-59
2021/05/18 17:20:11;;;;;;;5.17;4.67;;;;;;;;;;5035912;28;20509;-59
2021/05/18 17:22:39;;;;;;;5.20;4.70;;;;;;;;;;5035863;28;20457;-58
2021/05/18 17:25:08;;;;;;;6.80;4.67;;;;;;;;;;5035659;28;20447;-58
2021/05/18 17:27:35;;;;;;;5.93;5.07;;;;;;;;;;5035540;28;20985;-59
2021/05/18 17:30:01;;;;;;;5.83;4.90;;;;;;;;;;5035520;28;20500;-59
2021/05/18 17:32:28;;;;;;;6.10;4.63;;;;;;;;;;5035787;28;20832;-57
2021/05/18 17:34:55;;;;;;;5.67;5.07;;;;;;;;;;5035670;28;21030;-58
2021/05/18 17:37:22;;;;;;;7.77;5.57;;;;;;;;;;5035792;28;20442;-60
2021/05/18 17:39:49;;;;;;;6.10;5.50;;;;;;;;;;5035727;28;20441;-59
2021/05/18 17:42:16;;;;;;;5.53;4.80;;;;;;;;;;5035543;28;20470;-59
2021/05/18 17:44:43;;;;;;;5.63;5.00;;;;;;;;;;5035761;28;20540;-57
2021/05/18 17:47:11;;;;;;;5.97;5.37;;;;;;;;;;5035553;28;20823;-58
2021/05/18 17:49:38;;;;;;;6.03;4.90;;;;;;;;;;5035229;28;20449;-58
2021/05/18 17:52:07;;;;;;;9.03;5.43;;;;;;;;;;5035269;28;20476;-58
2021/05/18 17:54:34;;;;;;;5.23;4.73;;;;;;;;;;5035468;28;20557;-59
2021/05/18 17:57:01;;;;;;;5.40;4.90;;;;;;;;;;5035287;28;20452;-58
2021/05/18 17:59:28;;;;;;;6.50;5.33;;;;;;;;;;5034985;28;20452;-57
2021/05/18 18:01:55;;;;;;;5.80;4.43;;;;;;;;;;5035305;28;20475;-58
2021/05/18 18:04:22;;;;;;;5.33;4.83;;;;;;;;;;5035280;28;20475;-57
2021/05/18 18:06:49;;;;;;;4.67;4.17;;;;;;;;;;5035174;28;20449;-59
2021/05/18 18:09:15;;;;;;;4.67;3.93;;;;;;;;;;5035055;28;20485;-58
2021/05/18 18:11:42;;;;;;;4.67;4.17;;;;;;;;;;5034743;28;20469;-64
2021/05/18 18:14:10;;;;;;;5.40;4.37;;;;;;;;;;5035286;28;20441;-58
2021/05/18 18:16:37;;;;;;;5.03;3.57;;;;;;;;;;5034629;28;20955;-59
2021/05/18 18:19:04;;;;;;;4.00;3.60;;;;;;;;;;5034643;28;20445;-58
2021/05/18 18:21:31;;;;;;;6.73;4.27;;;;;;;;;;5034779;28;20520;-58
2021/05/18 18:23:57;;;;;;;3.37;3.03;;;;;;;;;;5034536;28;20456;-59
2021/05/18 18:26:26;;;;;;;3.90;3.27;;;;;;;;;;5034584;28;20941;-59
2021/05/18 18:28:52;;;;;;;3.13;2.83;;;;;;;;;;5034379;28;20534;-59
2021/05/18 18:31:20;;;;;;;3.20;2.90;;;;;;;;;;5034802;28;20514;-58
2021/05/18 18:33:47;;;;;;;6.40;3.43;;;;;;;;;;5034725;28;20511;-58
2021/05/18 18:36:14;;;;;;;3.27;2.97;;;;;;;;;;5034583;28;20456;-58
2021/05/18 18:38:40;;;;;;;3.73;3.10;;;;;;;;;;5034401;28;20453;-59
2021/05/18 18:41:07;;;;;;;4.00;2.90;;;;;;;;;;5034516;28;20514;-59
2021/05/18 18:43:34;;;;;;;4.40;3.30;;;;;;;;;;5034644;28;20453;-58
2021/05/18 18:46:01;;;;;;;4.30;3.53;;;;;;;;;;5034628;28;20457;-59
2021/05/18 18:48:29;;;;;;;5.60;3.97;;;;;;;;;;5034459;28;20484;-59
2021/05/18 18:51:00;;;;;;;5.00;3.97;;;;;;;;;;5034275;28;20587;-58
2021/05/18 18:53:34;;;;;;;6.03;4.30;;;;;;;;;;5034547;28;20773;-58
2021/05/18 18:56:01;;;;;;;5.30;4.43;;;;;;;;;;5034566;28;20474;-60
2021/05/18 18:58:28;;;;;;;9.33;5.27;;;;;;;;;;5034273;28;20446;-58
2021/05/18 19:00:55;;;;;;;5.50;4.70;;;;;;;;;;5034317;28;20487;-58
2021/05/18 19:03:25;;;;;;;7.60;5.50;;;;;;;;;;5034315;28;20504;-59
2021/05/18 19:06:00;;;;;;;6.23;5.63;;;;;;;;;;5034122;28;20456;-58